Saturday, December 20, 2014
05:10 UTC
  |  Log In   |  Register Free
Airport Search:

Orlando Sanford International Airport
(KSFB)

FAA data valid effective November 13, 2014 - January 08, 2015 (unless otherwise noted).

 
 
 
 
 
 
 
 
 
 
 
 
 
 

Current Aviation Weather for Orlando Sanford International Airport (KSFB)

The most recent METAR observation for KSFB was updated at: 2120
METAR Summary (Translated METAR)
KSFB
182053Z 01006KT 10SM CLR 20/07 A3009 RMK AO2 SLP189 T02000067 56017
KORL
182053Z AUTO 26004KT 10SM CLR 21/08 A3009 RMK AO2 SLP194 T02060083 56018
(14.8 nm SW from KSFB)
KDED
182055Z AUTO 31004KT 10SM CLR A3010 RMK AO1
(17.6 nm NW from KSFB)
TAF Summary (Translated TAF)
KSFB
191720Z 1918/2018 07005KT P6SM SCT200 BKN250 FM200900 VRB02KT 5SM BR BKN250 FM201400 18005KT P6SM BKN250
  Airport Weather Conditions for KSFB

 Current Weather at SFB
55° F
Fair
North winds at 0.0 mph
SFB NOAA Radar

Pressure: 30.11 in
Humidity: 83%
Wind: Calm
Dew Point: 50.0°F
Visibility: 10.00 mi


Airport Weather Forecast for KSFB

Translated METAR and TAF for KSFB
Translated METAR for KSFB (0511 UTC 20 December 2014)
found at http://aviationweather.gov/adds/metars/
 
METAR text: KSFB 200453Z AUTO 00000KT 10SM CLR 12/11 A3010 RMK AO2 SLP191 T01170106 402170094
Conditions at: KSFB (SANFORD/ORLANDO , FL, US) observed 0453 UTC 20 December 2014
Temperature: 11.7°C (53°F)
Dewpoint: 10.6°C (51°F) [RH = 93%]
Pressure (altimeter): 30.10 inches Hg (1019.4 mb)
[Sea-level pressure: 1019.1 mb]
Winds: calm
Visibility: 10 or more miles (16+ km)
Ceiling: at least 12,000 feet AGL
Clouds: sky clear below 12,000 feet AGL
Weather: automated observation with no human augmentation;
there may or may not be significant weather present at this time
Translated TAF for KSFB
Forecast for: KSFB (SANFORD/ORLANDO , FL, US)
TAF Text: KSFB 192320Z 2000/2024 00000KT P6SM BKN250
Forecast period: 0000 to 0900 UTC 20 December 2014
Forecast type: FROM: standard forecast or significant change
Winds: calm
Visibility: 6 or more miles (10+ km)
Ceiling: 25000 feet AGL
Clouds: broken clouds at 25000 feet AGL
Weather: no significant weather forecast for this period
TAF Text: FM200900 00000KT 5SM BR BKN250
Forecast period: 0900 to 1400 UTC 20 December 2014
Forecast type: FROM: standard forecast or significant change
Winds: calm
Visibility: 5 miles (8 km)
Ceiling: 25000 feet AGL
Clouds: broken clouds at 25000 feet AGL
Weather: BR  (mist)
TAF Text: FM201400 VRB03KT P6SM FEW040 BKN250
Forecast period: 1400 UTC 20 December 2014 to 0000 UTC 21 December 2014
Forecast type: FROM: standard forecast or significant change
Winds: variable direction winds at 3 MPH (3 knots; 1.6 m/s)
Visibility: 6 or more miles (10+ km)
Ceiling: 25000 feet AGL
Clouds: few clouds at 4000 feet AGL
broken clouds at 25000 feet AGL
Weather: no significant weather forecast for this period

Find All Airport Services Find A Hotel Find A Rental Car Find A Golf Course Find A Restaurant $100 Hamburger



FBO's on the Field
FBO Company Facility Photos Services Transportation Aviation Fuel Prices: Prices include tax
Catering Weather Repair Courtesy Rental Type 100LL JetA JetA+ MOGAS 8087
 
StarPort

StarPort logo
Currently rated 3.8 by 7 people
FS:
Last Updated: Dec-16
Login to update fuel prices
SS:
Contact StarPortMore FBO Information
 
Million Air Sanford

Currently rated 3.6 by 3 people
FS:Avfuel
Last Updated: Dec-15
Login to update fuel prices
SS:
Contact Million Air SanfordMore FBO Information
 
Add another FBO Facility Photos Catering Weather Repair Courtesy Rental Type 100LL JetA JetA+ MOGAS 8087
Services Transportation Aviation Fuel Prices: Prices include tax


model-print
model-print
model-print
model-print